Monte Rio, California
Current Conditions -  °F | °C
As of 3:53 PM on Wednesday 22 Oct 2014 (Local Time) from KSTS Reporting Station
Broken Clouds Broken Clouds  
Wind Chill: 75°   Ceiling: 25000
Heat Index: 75°   Visibility: 10mi
Dew Point: 53°   Wind: 6mph
Humidity: 46%   Direction: 200°SSW
Pressure: 29.99"   Gusts: NA
Location:  38.47°N, 123.01°W
Report Text: KSTS 222253Z 20005KT 10SM SCT050 BKN250 24/12 A2999 RMK AO2 SLP149 T02390117
Loading
Personal Weather Stations






























Interactive Weather Map
Tropical Storm Tracking
New forecast layout! Learn more

10-Day Weather Forecast

Advertisements
Track Severe Weather on mobile